sensor_id;sensor_type;location;lat;lon;timestamp;pressure;altitude;pressure_sealevel;temperature;humidity
51313;BME280;37397;53.226;10.400;2023-07-02T00:01:32;99929.13;;;19.74;60.82
51313;BME280;37397;53.226;10.400;2023-07-02T00:03:58;99910.75;;;19.72;61.00
51313;BME280;37397;53.226;10.400;2023-07-02T00:06:25;99911.31;;;19.70;60.66
51313;BME280;37397;53.226;10.400;2023-07-02T00:08:52;99914.78;;;19.68;60.89
51313;BME280;37397;53.226;10.400;2023-07-02T00:11:18;99905.13;;;19.66;60.59
51313;BME280;37397;53.226;10.400;2023-07-02T00:13:45;99898.56;;;19.65;60.66
51313;BME280;37397;53.226;10.400;2023-07-02T00:16:11;99891.78;;;19.63;60.94
51313;BME280;37397;53.226;10.400;2023-07-02T00:18:38;99892.38;;;19.61;60.95
51313;BME280;37397;53.226;10.400;2023-07-02T00:21:05;99890.81;;;19.60;60.65
51313;BME280;37397;53.226;10.400;2023-07-02T00:25:58;99875.94;;;19.56;61.01
51313;BME280;37397;53.226;10.400;2023-07-02T00:28:24;99898.84;;;19.54;60.91
51313;BME280;37397;53.226;10.400;2023-07-02T00:30:51;99908.91;;;19.53;60.79
51313;BME280;37397;53.226;10.400;2023-07-02T00:33:17;99911.56;;;19.51;60.89
51313;BME280;37397;53.226;10.400;2023-07-02T00:35:44;99910.03;;;19.50;61.08
51313;BME280;37397;53.226;10.400;2023-07-02T00:38:10;99912.69;;;19.48;60.89
51313;BME280;37397;53.226;10.400;2023-07-02T00:40:37;99924.06;;;19.46;61.08
51313;BME280;37397;53.226;10.400;2023-07-02T00:43:04;99916.53;;;19.43;60.73
51313;BME280;37397;53.226;10.400;2023-07-02T00:45:31;99916.53;;;19.43;60.78
51313;BME280;37397;53.226;10.400;2023-07-02T00:47:57;99913.44;;;19.41;61.12
51313;BME280;37397;53.226;10.400;2023-07-02T00:50:25;99905.88;;;19.38;60.93
51313;BME280;37397;53.226;10.400;2023-07-02T00:52:53;99907.22;;;19.37;60.92
51313;BME280;37397;53.226;10.400;2023-07-02T00:55:20;99917.25;;;19.36;61.07
51313;BME280;37397;53.226;10.400;2023-07-02T00:57:47;99910.47;;;19.33;60.88
51313;BME280;37397;53.226;10.400;2023-07-02T01:00:14;99911.03;;;19.31;60.97
51313;BME280;37397;53.226;10.400;2023-07-02T01:02:41;99906.38;;;19.28;61.00
51313;BME280;37397;53.226;10.400;2023-07-02T01:05:14;99909.84;;;19.27;60.98
51313;BME280;37397;53.226;10.400;2023-07-02T01:07:41;99905.97;;;19.24;61.01
51313;BME280;37397;53.226;10.400;2023-07-02T01:10:08;99899.19;;;19.22;61.30
51313;BME280;37397;53.226;10.400;2023-07-02T01:12:36;99900.31;;;19.19;61.23
51313;BME280;37397;53.226;10.400;2023-07-02T01:15:05;99892.44;;;19.19;61.22
51313;BME280;37397;53.226;10.400;2023-07-02T01:17:34;99889.31;;;19.17;61.32
51313;BME280;37397;53.226;10.400;2023-07-02T01:20:05;99887.78;;;19.16;61.07
51313;BME280;37397;53.226;10.400;2023-07-02T01:22:35;99889.13;;;19.15;61.42
51313;BME280;37397;53.226;10.400;2023-07-02T01:25:02;99890.25;;;19.12;61.34
51313;BME280;37397;53.226;10.400;2023-07-02T01:27:29;99893.13;;;19.12;61.38
51313;BME280;37397;53.226;10.400;2023-07-02T01:29:56;99883.13;;;19.13;61.17
51313;BME280;37397;53.226;10.400;2023-07-02T01:32:23;99885.03;;;19.10;61.03
51313;BME280;37397;53.226;10.400;2023-07-02T01:34:50;99889.28;;;19.09;61.41
51313;BME280;37397;53.226;10.400;2023-07-02T01:37:20;99897.16;;;19.09;61.42
51313;BME280;37397;53.226;10.400;2023-07-02T01:39:47;99903.50;;;19.07;61.45
51313;BME280;37397;53.226;10.400;2023-07-02T01:42:15;99906.19;;;19.05;61.33
51313;BME280;37397;53.226;10.400;2023-07-02T01:44:43;99901.97;;;19.06;61.23
51313;BME280;37397;53.226;10.400;2023-07-02T01:47:10;99903.88;;;19.04;61.18
51313;BME280;37397;53.226;10.400;2023-07-02T01:49:37;99911.78;;;19.03;61.21
51313;BME280;37397;53.226;10.400;2023-07-02T01:52:05;99912.34;;;19.02;61.07
51313;BME280;37397;53.226;10.400;2023-07-02T01:54:33;99904.78;;;18.99;61.33
51313;BME280;37397;53.226;10.400;2023-07-02T01:57:00;99910.56;;;18.99;61.31
51313;BME280;37397;53.226;10.400;2023-07-02T01:59:27;99909.56;;;18.96;61.38
51313;BME280;37397;53.226;10.400;2023-07-02T02:01:54;99913.03;;;18.94;61.24
51313;BME280;37397;53.226;10.400;2023-07-02T02:04:20;99914.16;;;18.91;61.01
51313;BME280;37397;53.226;10.400;2023-07-02T02:06:47;99909.72;;;18.90;61.38
51313;BME280;37397;53.226;10.400;2023-07-02T02:09:13;99905.25;;;18.89;61.21
51313;BME280;37397;53.226;10.400;2023-07-02T02:11:45;99906.59;;;18.88;61.21
51313;BME280;37397;53.226;10.400;2023-07-02T02:14:12;99906.38;;;18.86;61.60
51313;BME280;37397;53.226;10.400;2023-07-02T02:16:39;99909.28;;;18.86;61.12
51313;BME280;37397;53.226;10.400;2023-07-02T02:19:06;99909.06;;;18.84;61.46
51313;BME280;37397;53.226;10.400;2023-07-02T02:21:32;99898.59;;;18.81;61.54
51313;BME280;37397;53.226;10.400;2023-07-02T02:23:59;99904.38;;;18.81;61.40
51313;BME280;37397;53.226;10.400;2023-07-02T02:26:26;99905.72;;;18.80;61.35
51313;BME280;37397;53.226;10.400;2023-07-02T02:28:52;99917.84;;;18.78;61.47
51313;BME280;37397;53.226;10.400;2023-07-02T02:31:19;99906.84;;;18.77;61.64
51313;BME280;37397;53.226;10.400;2023-07-02T02:33:46;99909.72;;;18.77;61.52
51313;BME280;37397;53.226;10.400;2023-07-02T02:36:13;99912.63;;;18.77;61.88
51313;BME280;37397;53.226;10.400;2023-07-02T02:38:39;99917.44;;;18.74;61.72
51313;BME280;37397;53.226;10.400;2023-07-02T02:41:06;99922.41;;;18.74;61.70
51313;BME280;37397;53.226;10.400;2023-07-02T02:43:42;99920.88;;;18.73;61.66
51313;BME280;37397;53.226;10.400;2023-07-02T02:46:11;99920.09;;;18.72;61.81
51313;BME280;37397;53.226;10.400;2023-07-02T02:48:38;99922.19;;;18.72;61.93
51313;BME280;37397;53.226;10.400;2023-07-02T02:51:04;99916.44;;;18.72;61.67
51313;BME280;37397;53.226;10.400;2023-07-02T02:53:31;99929.34;;;18.71;61.76
51313;BME280;37397;53.226;10.400;2023-07-02T02:55:57;99927.78;;;18.70;61.74
51313;BME280;37397;53.226;10.400;2023-07-02T02:58:24;99926.22;;;18.69;61.79
51313;BME280;37397;53.226;10.400;2023-07-02T03:00:50;99928.91;;;18.67;61.82
51313;BME280;37397;53.226;10.400;2023-07-02T03:03:17;99932.78;;;18.69;61.79
51313;BME280;37397;53.226;10.400;2023-07-02T03:05:46;99924.69;;;18.68;61.73
51313;BME280;37397;53.226;10.400;2023-07-02T03:08:14;99939.13;;;18.68;61.58
51313;BME280;37397;53.226;10.400;2023-07-02T03:10:41;99946.44;;;18.69;61.72
51313;BME280;37397;53.226;10.400;2023-07-02T03:13:07;99942.03;;;18.68;61.82
51313;BME280;37397;53.226;10.400;2023-07-02T03:15:34;99935.44;;;18.67;61.94
51313;BME280;37397;53.226;10.400;2023-07-02T03:18:00;99936.81;;;18.66;61.65
51313;BME280;37397;53.226;10.400;2023-07-02T03:20:27;99934.69;;;18.67;61.82
51313;BME280;37397;53.226;10.400;2023-07-02T03:22:54;99933.91;;;18.66;61.87
51313;BME280;37397;53.226;10.400;2023-07-02T03:25:20;99933.13;;;18.66;61.75
51313;BME280;37397;53.226;10.400;2023-07-02T03:27:47;99922.69;;;18.63;62.10
51313;BME280;37397;53.226;10.400;2023-07-02T03:30:13;99927.13;;;18.64;61.89
51313;BME280;37397;53.226;10.400;2023-07-02T03:32:40;99923.47;;;18.63;62.00
51313;BME280;37397;53.226;10.400;2023-07-02T03:35:07;99925.56;;;18.63;61.98
51313;BME280;37397;53.226;10.400;2023-07-02T03:37:33;99936.34;;;18.62;61.98
51313;BME280;37397;53.226;10.400;2023-07-02T03:40:00;99941.56;;;18.64;61.97
51313;BME280;37397;53.226;10.400;2023-07-02T03:42:26;99938.47;;;18.62;61.88
51313;BME280;37397;53.226;10.400;2023-07-02T03:44:53;99940.00;;;18.63;61.71
51313;BME280;37397;53.226;10.400;2023-07-02T03:47:19;99939.81;;;18.61;62.02
51313;BME280;37397;53.226;10.400;2023-07-02T03:49:47;99936.91;;;18.61;61.71
51313;BME280;37397;53.226;10.400;2023-07-02T03:52:13;99938.03;;;18.57;61.77
51313;BME280;37397;53.226;10.400;2023-07-02T03:54:40;99928.03;;;18.58;61.78
51313;BME280;37397;53.226;10.400;2023-07-02T03:57:06;99939.59;;;18.58;61.89
51313;BME280;37397;53.226;10.400;2023-07-02T03:59:33;99932.25;;;18.57;61.81
51313;BME280;37397;53.226;10.400;2023-07-02T04:02:00;99926.47;;;18.57;61.92
51313;BME280;37397;53.226;10.400;2023-07-02T04:04:27;99933.59;;;18.56;61.94
51313;BME280;37397;53.226;10.400;2023-07-02T04:06:53;99937.06;;;18.55;61.75
51313;BME280;37397;53.226;10.400;2023-07-02T04:09:20;99934.16;;;18.55;62.05
51313;BME280;37397;53.226;10.400;2023-07-02T04:11:46;99936.25;;;18.54;61.99
51313;BME280;37397;53.226;10.400;2023-07-02T04:14:13;99941.47;;;18.56;61.90
51313;BME280;37397;53.226;10.400;2023-07-02T04:16:39;99934.94;;;18.55;62.08
51313;BME280;37397;53.226;10.400;2023-07-02T04:19:06;99942.28;;;18.56;62.05
51313;BME280;37397;53.226;10.400;2023-07-02T04:21:32;99950.16;;;18.56;62.08
51313;BME280;37397;53.226;10.400;2023-07-02T04:23:59;99939.94;;;18.55;62.02
51313;BME280;37397;53.226;10.400;2023-07-02T04:26:26;99941.47;;;18.56;62.06
51313;BME280;37397;53.226;10.400;2023-07-02T04:29:13;99938.38;;;18.54;61.96
51313;BME280;37397;53.226;10.400;2023-07-02T04:31:39;99937.63;;;18.53;61.84
51313;BME280;37397;53.226;10.400;2023-07-02T04:34:06;99939.16;;;18.54;61.70
51313;BME280;37397;53.226;10.400;2023-07-02T04:36:33;99953.59;;;18.54;61.91
51313;BME280;37397;53.226;10.400;2023-07-02T04:38:59;99956.47;;;18.54;61.99
51313;BME280;37397;53.226;10.400;2023-07-02T04:41:26;99959.63;;;18.56;61.74
51313;BME280;37397;53.226;10.400;2023-07-02T04:43:53;99958.06;;;18.55;61.89
51313;BME280;37397;53.226;10.400;2023-07-02T04:46:20;99952.28;;;18.55;61.55
51313;BME280;37397;53.226;10.400;2023-07-02T04:48:46;99951.50;;;18.55;61.78
51313;BME280;37397;53.226;10.400;2023-07-02T04:51:14;99956.72;;;18.56;61.86
51313;BME280;37397;53.226;10.400;2023-07-02T04:53:40;99953.84;;;18.56;61.65
51313;BME280;37397;53.226;10.400;2023-07-02T04:56:07;99954.59;;;18.57;61.70
51313;BME280;37397;53.226;10.400;2023-07-02T04:58:34;99950.94;;;18.56;61.90
51313;BME280;37397;53.226;10.400;2023-07-02T05:01:00;99943.81;;;18.57;61.93
51313;BME280;37397;53.226;10.400;2023-07-02T05:03:27;99956.94;;;18.58;61.76
51313;BME280;37397;53.226;10.400;2023-07-02T05:05:54;99955.59;;;18.59;61.94
51313;BME280;37397;53.226;10.400;2023-07-02T05:08:20;99958.69;;;18.62;61.72
51313;BME280;37397;53.226;10.400;2023-07-02T05:10:47;99959.47;;;18.62;61.71
51313;BME280;37397;53.226;10.400;2023-07-02T05:13:14;99966.00;;;18.63;61.80
51313;BME280;37397;53.226;10.400;2023-07-02T05:15:41;99964.69;;;18.64;61.81
51313;BME280;37397;53.226;10.400;2023-07-02T05:18:09;99954.69;;;18.65;61.87
51313;BME280;37397;53.226;10.400;2023-07-02T05:20:35;99964.13;;;18.65;61.64
51313;BME280;37397;53.226;10.400;2023-07-02T05:23:02;99957.03;;;18.66;61.69
51313;BME280;37397;53.226;10.400;2023-07-02T05:25:28;99966.47;;;18.67;61.72
51313;BME280;37397;53.226;10.400;2023-07-02T05:27:55;99960.91;;;18.69;61.85
51313;BME280;37397;53.226;10.400;2023-07-02T05:30:21;99964.03;;;18.71;61.84
51313;BME280;37397;53.226;10.400;2023-07-02T05:32:47;99959.78;;;18.72;61.88
51313;BME280;37397;53.226;10.400;2023-07-02T05:35:14;99968.66;;;18.74;61.68
51313;BME280;37397;53.226;10.400;2023-07-02T05:37:41;99970.97;;;18.75;61.54
51313;BME280;37397;53.226;10.400;2023-07-02T05:40:07;99966.00;;;18.76;61.55
51313;BME280;37397;53.226;10.400;2023-07-02T05:42:34;99965.44;;;18.77;61.58
51313;BME280;37397;53.226;10.400;2023-07-02T05:45:01;99963.53;;;18.80;61.50
51313;BME280;37397;53.226;10.400;2023-07-02T05:47:27;99960.63;;;18.80;61.70
51313;BME280;37397;53.226;10.400;2023-07-02T05:49:56;99964.53;;;18.83;61.81
51313;BME280;37397;53.226;10.400;2023-07-02T05:52:22;99967.66;;;18.85;61.80
51313;BME280;37397;53.226;10.400;2023-07-02T05:54:49;99970.00;;;18.86;61.53
51313;BME280;37397;53.226;10.400;2023-07-02T05:57:15;99968.66;;;18.87;61.44
51313;BME280;37397;53.226;10.400;2023-07-02T05:59:42;99960.19;;;18.89;61.62
51313;BME280;37397;53.226;10.400;2023-07-02T06:02:08;99968.88;;;18.89;61.53
51313;BME280;37397;53.226;10.400;2023-07-02T06:04:35;99966.19;;;18.91;61.33
51313;BME280;37397;53.226;10.400;2023-07-02T06:07:01;99970.06;;;18.94;61.33
51313;BME280;37397;53.226;10.400;2023-07-02T06:09:28;99970.84;;;18.94;61.40
51313;BME280;37397;53.226;10.400;2023-07-02T06:11:55;99973.16;;;18.96;61.66
51313;BME280;37397;53.226;10.400;2023-07-02T06:14:21;99982.63;;;18.97;61.54
51313;BME280;37397;53.226;10.400;2023-07-02T06:16:49;99984.38;;;19.00;61.62
51313;BME280;37397;53.226;10.400;2023-07-02T06:19:16;99988.06;;;19.00;61.79
51313;BME280;37397;53.226;10.400;2023-07-02T06:21:42;99981.50;;;19.00;61.77
51313;BME280;37397;53.226;10.400;2023-07-02T06:24:09;99980.16;;;19.01;61.41
51313;BME280;37397;53.226;10.400;2023-07-02T06:26:35;99984.81;;;19.04;61.48
51313;BME280;37397;53.226;10.400;2023-07-02T06:29:02;99982.13;;;19.06;61.69
51313;BME280;37397;53.226;10.400;2023-07-02T06:31:28;99993.69;;;19.06;61.38
51313;BME280;37397;53.226;10.400;2023-07-02T06:33:55;99985.25;;;19.08;61.49
51313;BME280;37397;53.226;10.400;2023-07-02T06:36:22;99992.59;;;19.09;61.52
51313;BME280;37397;53.226;10.400;2023-07-02T06:38:48;99991.25;;;19.10;61.13
51313;BME280;37397;53.226;10.400;2023-07-02T06:41:15;100001.47;;;19.11;60.90
51313;BME280;37397;53.226;10.400;2023-07-02T06:43:42;99996.47;;;19.11;61.12
51313;BME280;37397;53.226;10.400;2023-07-02T06:46:10;99989.91;;;19.11;60.98
51313;BME280;37397;53.226;10.400;2023-07-02T06:48:37;99998.00;;;19.12;61.02
51313;BME280;37397;53.226;10.400;2023-07-02T06:51:04;100001.69;;;19.13;60.80
51313;BME280;37397;53.226;10.400;2023-07-02T06:53:30;100000.34;;;19.14;60.96
51313;BME280;37397;53.226;10.400;2023-07-02T06:55:57;100005.34;;;19.13;60.79
51313;BME280;37397;53.226;10.400;2023-07-02T06:58:23;100005.00;;;19.17;60.67
51313;BME280;37397;53.226;10.400;2023-07-02T07:00:50;100009.25;;;19.16;60.86
51313;BME280;37397;53.226;10.400;2023-07-02T07:03:17;100005.25;;;19.19;60.85
51313;BME280;37397;53.226;10.400;2023-07-02T07:05:44;100007.69;;;19.15;60.64
51313;BME280;37397;53.226;10.400;2023-07-02T07:08:10;100004.69;;;19.21;60.67
51313;BME280;37397;53.226;10.400;2023-07-02T07:10:37;100003.88;;;19.20;60.42
51313;BME280;37397;53.226;10.400;2023-07-02T07:13:03;100007.78;;;19.23;60.05
51313;BME280;37397;53.226;10.400;2023-07-02T07:15:32;100002.75;;;19.23;60.17
51313;BME280;37397;53.226;10.400;2023-07-02T07:18:00;99999.66;;;19.21;60.00
51313;BME280;37397;53.226;10.400;2023-07-02T07:20:27;99995.66;;;19.24;60.17
51313;BME280;37397;53.226;10.400;2023-07-02T07:22:53;99995.84;;;19.26;60.10
51313;BME280;37397;53.226;10.400;2023-07-02T07:25:20;100008.97;;;19.27;60.07
51313;BME280;37397;53.226;10.400;2023-07-02T07:27:46;100013.19;;;19.26;59.86
51313;BME280;37397;53.226;10.400;2023-07-02T07:30:13;100002.41;;;19.27;59.91
51313;BME280;37397;53.226;10.400;2023-07-02T07:32:41;100004.72;;;19.28;59.65
51313;BME280;37397;53.226;10.400;2023-07-02T07:35:07;100020.97;;;19.31;59.37
51313;BME280;37397;53.226;10.400;2023-07-02T07:37:34;100017.09;;;19.29;59.42
51313;BME280;37397;53.226;10.400;2023-07-02T07:40:00;100024.09;;;19.34;59.11
51313;BME280;37397;53.226;10.400;2023-07-02T07:42:27;100027.75;;;19.34;58.98
51313;BME280;37397;53.226;10.400;2023-07-02T07:44:53;100020.59;;;19.35;59.12
51313;BME280;37397;53.226;10.400;2023-07-02T07:47:20;100027.19;;;19.36;58.86
51313;BME280;37397;53.226;10.400;2023-07-02T07:49:46;100027.97;;;19.36;58.58
51313;BME280;37397;53.226;10.400;2023-07-02T07:52:13;100028.72;;;19.37;58.65
51313;BME280;37397;53.226;10.400;2023-07-02T07:54:39;100026.84;;;19.39;58.66
51313;BME280;37397;53.226;10.400;2023-07-02T07:57:09;100034.19;;;19.40;58.60
51313;BME280;37397;53.226;10.400;2023-07-02T07:59:35;100027.59;;;19.40;58.28
51313;BME280;37397;53.226;10.400;2023-07-02T08:02:02;100035.72;;;19.41;58.06
51313;BME280;37397;53.226;10.400;2023-07-02T08:04:29;100038.03;;;19.43;58.15
51313;BME280;37397;53.226;10.400;2023-07-02T08:06:55;100043.84;;;19.43;58.33
51313;BME280;37397;53.226;10.400;2023-07-02T08:09:24;100059.09;;;19.43;57.92
51313;BME280;37397;53.226;10.400;2023-07-02T08:11:50;100049.63;;;19.43;57.50
51313;BME280;37397;53.226;10.400;2023-07-02T08:14:17;100045.41;;;19.44;57.10
51313;BME280;37397;53.226;10.400;2023-07-02T08:16:47;100064.31;;;19.45;56.96
51313;BME280;37397;53.226;10.400;2023-07-02T08:19:14;100052.75;;;19.45;56.87
51313;BME280;37397;53.226;10.400;2023-07-02T08:21:40;100060.88;;;19.46;57.02
51313;BME280;37397;53.226;10.400;2023-07-02T08:24:07;100065.84;;;19.46;56.77
51313;BME280;37397;53.226;10.400;2023-07-02T08:26:33;100057.19;;;19.46;56.76
51313;BME280;37397;53.226;10.400;2023-07-02T08:29:00;100066.06;;;19.48;56.57
51313;BME280;37397;53.226;10.400;2023-07-02T08:31:27;100068.97;;;19.48;56.50
51313;BME280;37397;53.226;10.400;2023-07-02T08:33:53;100066.84;;;19.48;56.37
51313;BME280;37397;53.226;10.400;2023-07-02T08:36:20;100066.28;;;19.50;56.21
51313;BME280;37397;53.226;10.400;2023-07-02T08:38:47;100063.41;;;19.50;56.02
51313;BME280;37397;53.226;10.400;2023-07-02T08:41:14;100073.63;;;19.51;56.02
51313;BME280;37397;53.226;10.400;2023-07-02T08:43:41;100075.94;;;19.53;56.09
51313;BME280;37397;53.226;10.400;2023-07-02T08:46:08;100076.75;;;19.53;56.02
51313;BME280;37397;53.226;10.400;2023-07-02T08:48:36;100068.06;;;19.53;55.66
51313;BME280;37397;53.226;10.400;2023-07-02T08:51:02;100060.91;;;19.54;55.66
51313;BME280;37397;53.226;10.400;2023-07-02T08:53:29;100075.38;;;19.54;55.61
51313;BME280;37397;53.226;10.400;2023-07-02T08:58:27;100083.75;;;19.58;55.17
51313;BME280;37397;53.226;10.400;2023-07-02T09:01:10;100092.41;;;19.58;53.98
51313;BME280;37397;53.226;10.400;2023-07-02T09:03:37;100101.31;;;19.60;54.95
51313;BME280;37397;53.226;10.400;2023-07-02T09:06:05;100088.38;;;19.61;54.46
51313;BME280;37397;53.226;10.400;2023-07-02T09:08:31;100091.84;;;19.59;54.29
51313;BME280;37397;53.226;10.400;2023-07-02T09:11:05;100099.19;;;19.60;53.78
51313;BME280;37397;53.226;10.400;2023-07-02T09:13:51;100097.63;;;19.59;53.15
51313;BME280;37397;53.226;10.400;2023-07-02T09:16:27;100102.28;;;19.62;53.41
51313;BME280;37397;53.226;10.400;2023-07-02T09:19:06;100090.72;;;19.62;53.42
51313;BME280;37397;53.226;10.400;2023-07-02T09:21:44;100097.28;;;19.63;53.53
51313;BME280;37397;53.226;10.400;2023-07-02T09:26:43;100094.59;;;19.65;53.62
51313;BME280;37397;53.226;10.400;2023-07-02T09:29:09;100087.47;;;19.66;53.54
51313;BME280;37397;53.226;10.400;2023-07-02T09:31:46;100101.97;;;19.66;51.95
51313;BME280;37397;53.226;10.400;2023-07-02T09:34:37;100099.81;;;19.66;53.25
51313;BME280;37397;53.226;10.400;2023-07-02T09:37:05;100105.81;;;19.68;53.53
51313;BME280;37397;53.226;10.400;2023-07-02T09:39:33;100092.91;;;19.70;53.51
51313;BME280;37397;53.226;10.400;2023-07-02T09:42:01;100101.59;;;19.70;53.32
51313;BME280;37397;53.226;10.400;2023-07-02T09:44:33;100096.22;;;19.74;52.70
51313;BME280;37397;53.226;10.400;2023-07-02T09:47:04;100092.00;;;19.75;53.48
51313;BME280;37397;53.226;10.400;2023-07-02T09:49:33;100095.13;;;19.77;53.41
51313;BME280;37397;53.226;10.400;2023-07-02T09:52:03;100090.91;;;19.78;53.31
51313;BME280;37397;53.226;10.400;2023-07-02T09:54:29;100109.81;;;19.79;53.01
51313;BME280;37397;53.226;10.400;2023-07-02T09:56:58;100121.63;;;19.81;53.21
51313;BME280;37397;53.226;10.400;2023-07-02T09:59:25;100110.22;;;19.83;53.30
51313;BME280;37397;53.226;10.400;2023-07-02T10:01:52;100114.91;;;19.86;53.33
51313;BME280;37397;53.226;10.400;2023-07-02T10:04:20;100123.03;;;19.88;53.22
51313;BME280;37397;53.226;10.400;2023-07-02T10:06:51;100124.22;;;19.92;53.13
51313;BME280;37397;53.226;10.400;2023-07-02T10:09:20;100122.88;;;19.93;53.33
51313;BME280;37397;53.226;10.400;2023-07-02T10:11:47;100120.19;;;19.95;52.94
51313;BME280;37397;53.226;10.400;2023-07-02T10:14:14;100123.09;;;19.95;52.73
51313;BME280;37397;53.226;10.400;2023-07-02T10:16:51;100127.75;;;19.98;51.79
51313;BME280;37397;53.226;10.400;2023-07-02T10:19:18;100120.84;;;20.01;52.38
51313;BME280;37397;53.226;10.400;2023-07-02T10:21:45;100112.34;;;20.03;52.53
51313;BME280;37397;53.226;10.400;2023-07-02T10:24:13;100130.72;;;20.06;52.67
51313;BME280;37397;53.226;10.400;2023-07-02T10:26:58;100121.25;;;20.06;52.35
51313;BME280;37397;53.226;10.400;2023-07-02T10:29:25;100120.84;;;20.01;51.80
51313;BME280;37397;53.226;10.400;2023-07-02T10:31:53;100121.47;;;20.08;52.70
51313;BME280;37397;53.226;10.400;2023-07-02T10:34:31;100135.97;;;20.08;52.00
51313;BME280;37397;53.226;10.400;2023-07-02T10:36:59;100123.22;;;20.11;52.30
51313;BME280;37397;53.226;10.400;2023-07-02T10:39:27;100120.75;;;20.15;52.07
51313;BME280;37397;53.226;10.400;2023-07-02T10:42:09;100119.41;;;20.16;50.87
51313;BME280;37397;53.226;10.400;2023-07-02T10:44:56;100125.97;;;20.16;50.76
51313;BME280;37397;53.226;10.400;2023-07-02T10:47:22;100137.19;;;20.20;50.58
51313;BME280;37397;53.226;10.400;2023-07-02T10:49:49;100132.97;;;20.21;50.94
51313;BME280;37397;53.226;10.400;2023-07-02T10:52:15;100130.47;;;20.25;50.46
51313;BME280;37397;53.226;10.400;2023-07-02T10:54:44;100120.25;;;20.24;50.38
51313;BME280;37397;53.226;10.400;2023-07-02T10:57:13;100128.38;;;20.26;49.97
51313;BME280;37397;53.226;10.400;2023-07-02T10:59:41;100129.34;;;20.28;50.17
51313;BME280;37397;53.226;10.400;2023-07-02T11:02:08;100129.00;;;20.32;50.40
51313;BME280;37397;53.226;10.400;2023-07-02T11:04:36;100139.22;;;20.33;50.33
51313;BME280;37397;53.226;10.400;2023-07-02T11:07:04;100129.22;;;20.34;50.54
51313;BME280;37397;53.226;10.400;2023-07-02T11:09:31;100143.13;;;20.35;50.46
51313;BME280;37397;53.226;10.400;2023-07-02T11:11:59;100152.78;;;20.38;50.57
51313;BME280;37397;53.226;10.400;2023-07-02T11:14:27;100137.72;;;20.39;50.59
51313;BME280;37397;53.226;10.400;2023-07-02T11:16:55;100134.84;;;20.39;50.47
51313;BME280;37397;53.226;10.400;2023-07-02T11:19:21;100147.41;;;20.42;50.96
51313;BME280;37397;53.226;10.400;2023-07-02T11:21:52;100133.13;;;20.44;50.39
51313;BME280;37397;53.226;10.400;2023-07-02T11:24:33;100128.09;;;20.45;50.49
51313;BME280;37397;53.226;10.400;2023-07-02T11:27:01;100136.22;;;20.46;50.17
51313;BME280;37397;53.226;10.400;2023-07-02T11:29:32;100137.03;;;20.47;49.88
51313;BME280;37397;53.226;10.400;2023-07-02T11:32:09;100141.47;;;20.48;49.69
51313;BME280;37397;53.226;10.400;2023-07-02T11:34:37;100149.03;;;20.51;50.44
51313;BME280;37397;53.226;10.400;2023-07-02T11:37:05;100148.44;;;20.52;50.26
51313;BME280;37397;53.226;10.400;2023-07-02T11:39:32;100150.78;;;20.54;50.12
51313;BME280;37397;53.226;10.400;2023-07-02T11:41:59;100145.22;;;20.56;50.24
51313;BME280;37397;53.226;10.400;2023-07-02T11:44:25;100150.41;;;20.57;50.33
51313;BME280;37397;53.226;10.400;2023-07-02T11:46:52;100155.66;;;20.59;49.91
51313;BME280;37397;53.226;10.400;2023-07-02T11:49:19;100136.91;;;20.60;49.30
51313;BME280;37397;53.226;10.400;2023-07-02T11:51:45;100165.91;;;20.60;49.41
51313;BME280;37397;53.226;10.400;2023-07-02T11:54:16;100148.72;;;20.62;49.32
51313;BME280;37397;53.226;10.400;2023-07-02T11:56:44;100148.97;;;20.64;49.37
51313;BME280;37397;53.226;10.400;2023-07-02T11:59:11;100148.41;;;20.66;49.61
51313;BME280;37397;53.226;10.400;2023-07-02T12:01:37;100143.75;;;20.70;49.59
51313;BME280;37397;53.226;10.400;2023-07-02T12:04:04;100133.72;;;20.71;49.58
51313;BME280;37397;53.226;10.400;2023-07-02T12:06:31;100155.03;;;20.74;49.35
51313;BME280;37397;53.226;10.400;2023-07-02T12:08:58;100155.97;;;20.76;49.64
51313;BME280;37397;53.226;10.400;2023-07-02T12:11:24;100167.81;;;20.79;49.38
51313;BME280;37397;53.226;10.400;2023-07-02T12:13:51;100174.56;;;20.81;49.13
51313;BME280;37397;53.226;10.400;2023-07-02T12:16:17;100174.78;;;20.83;48.86
51313;BME280;37397;53.226;10.400;2023-07-02T12:18:44;100171.31;;;20.85;48.48
51313;BME280;37397;53.226;10.400;2023-07-02T12:21:11;100177.91;;;20.85;47.75
51313;BME280;37397;53.226;10.400;2023-07-02T12:23:37;100181.56;;;20.86;48.22
51313;BME280;37397;53.226;10.400;2023-07-02T12:26:04;100165.72;;;20.87;48.25
51313;BME280;37397;53.226;10.400;2023-07-02T12:28:30;100177.53;;;20.89;48.42
51313;BME280;37397;53.226;10.400;2023-07-02T12:30:57;100174.63;;;20.89;48.35
51313;BME280;37397;53.226;10.400;2023-07-02T12:33:23;100182.19;;;20.92;48.10
51313;BME280;37397;53.226;10.400;2023-07-02T12:35:50;100187.78;;;20.90;48.19
51313;BME280;37397;53.226;10.400;2023-07-02T12:38:17;100183.75;;;20.93;47.63
51313;BME280;37397;53.226;10.400;2023-07-02T12:40:43;100183.75;;;20.93;47.22
51313;BME280;37397;53.226;10.400;2023-07-02T12:43:09;100185.28;;;20.94;47.37
51313;BME280;37397;53.226;10.400;2023-07-02T12:45:36;100191.84;;;20.94;47.61
51313;BME280;37397;53.226;10.400;2023-07-02T12:48:03;100183.38;;;20.97;47.75
51313;BME280;37397;53.226;10.400;2023-07-02T12:50:30;100174.09;;;20.98;47.67
51313;BME280;37397;53.226;10.400;2023-07-02T12:52:56;100174.09;;;20.98;47.79
51313;BME280;37397;53.226;10.400;2023-07-02T12:55:23;100194.59;;;21.00;47.75